Timeline UpdatesTrip UpdatesNews PostsPvt PostsTravel TipsAdmin PostsConv PostsFollowed PostsChat RequestsBlog PostsPNR Posts

Disclaimer
Search
 
 
Wed Apr 23, 2014 21:03:50 ISTHomeTrainsΣChainsAtlasPNRForumGalleryNewsFAQTripsMembersLoginFeedback
No Recent News for this Train
Other Trains in the News **new
Latest...
Partially cancelled between Delhi and Mughalsarai from 14/4/14-18/5/14 #960478
Wed Feb 26, 2014 (08:39PM)
⇐ Return Journey: Train# 13039

13040/Delhi-Howrah Janta Express (UnReserved)

Apr 23 departure has been CANCELLED from DLI/Old Delhi Junction to MGS/Mughal Sarai Junction
Sep 15 2013 (12:35PM)
Change Departure Station:
Change Arrival Station:
Post a Train Travel TipPost a Train Travel Tip **new
Post a Comment/Question/Picture/VideoPost a Comment/Question/Picture/Video
Inaugural Run
Tue Oct 01, 1946
Pantry/Catering
✕ NO Pantry Car
✕ NO Catering
RSA - Rake Sharing
Rake/Coach Composition
All coaches having Unreserved.
Loco
HWH WAP-4
News    PNR    Forum    Time-Table    Availability    Fare Chart    Map    Arr/Dep History    Trips    Gallery    ΣChains    X/O    Timeline    
Travel Time: 38h 35m    116 halts    Distance: 1537 km    Avg Speed: 39 km/hr
Type: Mail/Express
Zone: ER/Eastern
Departs @ 15:30 (Avg 4h 22m late)
Platform# 10
SMTWTFS
Old Delhi Junction/DLI 
Arrives @ 06:05 +2 nights (Avg 4h 39m late)
Platform# 7
SMTWTFS
Kolkata Howrah Junction/HWH 

116 halts. 291 intermediate Stations between Old Delhi Junction and Kolkata Howrah Junction

Show ALL intermediate Stations  Show Old Time-Table

#CodeStation NameX/OArrivesAvgDepartsAvgHaltPFDay#KmSpeedElevZoneAddress
1DLI»Old Delhi Junction (16)»  -15:30+4:221010.025219mNRNear Chandni Chowk Metro Station, Delhi NCT
2DSAShahdara Junction (4)  15:45+4:3115:47+4:342m216.337212mNRCircular Rd, Delhi NCT
3GZBGhaziabad Junction (6)X  16:09+4:3916:11+4:442m2119.946217mNRGhaziabad, Uttar Pradesh
4MIUMaripat (2)X  16:24+4:5116:25+4:551m--129.958213mNCRNational Highway 91, Uttar Pradesh
5DERDadri (3)  16:32+4:5816:33+4:591m2136.769210mNCR203207, Uttar Pradesh
6AJRAjaibpur (2)XO  16:41+4:5716:42+5:051m--145.862207mNCRGreater Noida, Uttar Pradesh
7DKDEDankaur (3)O  16:50+5:0916:51+5:111m--154.190209mNCRShyam Nagar Mandi, Uttar Pradesh
8WAIRWair (2)  16:57+5:1016:58+5:141m1163.149203mNCRBulandshahr District, Uttar Pradesh
9CHLChola (3)X  17:04+5:1717:05+5:161m--168.089204mNCRTahsil Bulandshahar, Uttar Pradesh
10SKQSikandarpur (2)  17:11+5:0017:12+5:081m--176.949199mNCRMDR 70W, Uttar Pradesh
11KRJKhurja Junction (4)  17:19+5:0517:20+5:061m2182.648199mNCRBulandshahr, Uttar Pradesh
12DARDanwar (2)X  17:34+5:0117:35+5:061m--193.768198mNCRDanwar, Uttar Pradesh
13SOMSomna (2)O  17:44+5:0817:45+5:121m--1104.068195mNCRNational Highway 91, Uttar Pradesh
14KLAKulwa (2)X  17:54+5:1317:55+5:131m--1114.151190mNCRAligarh, Uttar Pradesh
15ALJNAligarh Junction (4)  18:09+5:0618:10+4:551m21126.149192mNCRAligarh, Uttar Pradesh
16MXKMandrak (2)XO  18:27+5:0418:28+5:111m--1139.988190mNCRNational Highway 93, Uttar Pradesh
17SNSSasni (3)  18:33+5:1418:34+5:191m--1147.349185mNCRSasni, Uttar Pradesh
18HRSHathras Junction (3)XO  18:45+5:1818:50+5:235m11156.271183mNCRMahamaya Nagar(05722-242803), Uttar Pradesh
19JLSJalesar Road (1)  19:07+5:1219:08+5:151m11176.366172mNCRMDR 106W, Uttar Pradesh
20BRNBarhan Junction  19:20+5:0619:21+5:091m--1189.57173mNCRJN Point-Tundle/Aligarh/Etah, Uttar Pradesh
21TDLTundla Junction (4)  21:33+5:1821:43+5:2010m31204.266167mNCRDistt.Firozabad, Uttar Pradesh
22FZDFirozabad (4)XO  21:58+5:2521:59+5:221m21220.721164mNCRFirozabad, Uttar Pradesh
23SKBShikohabad Junction (4)X  22:55+5:1423:00+5:115m21240.658166mNCRDistrict Firozabad, Uttar Pradesh
24JGRJaswantnagar (2)  23:41+5:1123:42+5:141m--1280.025154mNCRJaswantnagar, Uttar Pradesh
25ETWEtawah (5)X  00:20+4:5500:25+4:565m32296.085154mNCRDistt. Etawah, Uttar Pradesh
26BNTBharthana (3)X  00:39+4:5900:40+5:021m--2315.969147mNCRBharthana, Uttar Pradesh
27ULDAchalda (3)X  00:57+5:0200:58+5:041m--2335.463147mNCRDist. Auraiya(05688-1072), Uttar Pradesh
28PHDPhaphund (4)XO  01:14+5:0401:15+5:071m--2352.229146mNCRdist. Auraiya, Uttar Pradesh
29JJKJhinjhak (3)X  01:56+4:4701:57+4:481m22372.052140mNCRAuraiya, Uttar Pradesh
30RURARura (4)X  02:19+4:4602:20+4:471m--2391.033137mNCRJhinjhak, Uttar Pradesh
31CNBKanpur Central (10)X  03:40+4:4903:50+4:5210m42435.460128mNCRKanpur, Uttar Pradesh
32BKOBindki RoadX  04:36+4:5604:38+4:582m--2481.770124mNCRFatehpur, Uttar Pradesh
33FTPFatehpur (3)X  05:05+5:0105:10+4:575m--2513.083120mNCRFatehpur, Uttar Pradesh
34KGAKhaga (3)X  05:35+4:5805:40+4:595m--2547.774114mNCRFatehpur, Uttar Pradesh
35SROSirathu (2)X  06:00+5:0306:05+5:045m12572.574109mNCRSirathu, Uttar Pradesh
36SJTShujaatpur  06:13+5:0906:18+5:075m--2582.377107mNCRNational Highway 2, Uttar Pradesh
37BREBharwari  06:26+5:1306:28+5:092m--2592.657108mNCRBharwari, Uttar Pradesh
38SYWNSaiyid SarawanX  06:44+5:0906:45+5:121m--2607.916106mNCR212203 ?, Uttar Pradesh
39MREManauri  07:02+5:0507:03+5:041m--2612.558105mNCRSabderganj-Fatehpur Rd, Uttar Pradesh
40SFGSubedarGanj (3)XO  07:17+5:0407:18+5:011m--2625.97100mNCRAllahabad, Uttar Pradesh
41ALDAllahabad Junction (10)X  07:50+5:0308:00+4:5810m62629.747100mNCRAllahabad 211003, Uttar Pradesh
42NYNNaini Junction (4)  08:09+4:4308:11+4:462m12636.84998mNCRAllahabad, Uttar Pradesh
43KCNKarchanaX  08:24+4:4908:25+4:511m--2647.47294mNCRKarchana, Uttar Pradesh
44MJAMeja Road (4)X  08:42+4:5708:43+5:031m--2667.83294mNCRDistrict Allahabad, Uttar Pradesh
45UNDUnchdih  08:58+5:0308:59+5:061m--2676.04494mNCRUnchdih, Uttar Pradesh
46MNFManda Road  09:10+5:0109:15+5:055m--2684.05693mNCRNH 76, Uttar Pradesh
47JIAJigna (1)X  09:24+5:0909:25+5:131m12692.45994mNCRNational Highway 76, Uttar Pradesh
48GAEGaipura (4)XO  09:32+5:1609:33+5:161m--2699.26286mNCRGaipura, Uttar Pradesh
49BDLVindhyachal (3)X  09:45+5:1509:46+5:141m--2711.51988mNCRMirzapur, Uttar Pradesh
50MZPMirzapur (3)X  10:09+5:0810:10+5:121m--2718.94788mNCRMirzapur, Uttar Pradesh
51CARChunar Junction (5)XO  10:50+5:1410:55+5:045m22750.25785mNCRChunar Junction, Uttar Pradesh
52KYTKailahatO  11:05+5:0511:06+5:071m--2759.63284mNCRKailahat, Uttar Pradesh
53ARWAhraura RoadO  11:22+5:0411:23+5:051m--2768.12285mNCRDist. Mirzapur, Uttar Pradesh
54MGSMughal Sarai Junction (8)X  12:00+4:4612:15+4:4515m22781.95083mECRMughalsarai 232101, Uttar Pradesh
55SLDSakaldiha (2)  12:37+4:3512:38+4:371m--2800.18281mECRState Highway 69, Uttar Pradesh
56ZNAZamaniaX  12:57+4:4012:58+4:411m--2826.15877mECRGhazipur, Uttar Pradesh
57DLNDildarnagar Junction (2)  13:12+4:4113:14+4:422m--2839.67972mECRDildarnagar, Uttar Pradesh
58BWHBhadaura  13:20+4:4313:21+4:441m--2847.55469mECRGhazipur, Uttar Pradesh
59GMRGahmar (2)  13:30+4:4313:31+4:471m--2855.66968mECRDistt: Ghazipur, Uttar Pradesh
60CSAChausa (2)X  13:39+4:4913:40+4:531m--2864.96668mECRState Highway 14, Bihar
61BXRBuxar (3)X  13:50+4:5413:55+4:535m--2875.88267mECRBuxar, Bihar
62DUREDumraon (3)  14:07+4:5414:08+4:551m--2892.15170mECRDumraon, Bihar
63TWGTwining Ganj  14:17+4:5414:18+4:561m--2899.77270mECRArrah Buxar Rd, Bihar
64RPRRaghunathpurX  14:25+4:5614:26+4:591m--2908.15969mECRRaghunathpur, Bihar
65BYNBanahiX  14:35+4:5814:36+4:581m--2917.04467mECRBanahi, Bihar
66BEABihiya  14:44+4:5814:45+4:591m--2922.96367mECRBehea, Bihar
67KRSKarisath (2)XO  14:56+4:5914:57+4:501m--2934.42065mECRKarisath, Bihar
68ARAAra Junction (3)  15:27+4:3815:29+4:382m--2944.39963mECRarrah( 06182-233411), Bihar
69KUAKulharia (2)X  15:35+4:4215:36+4:231m--2954.23661mECRChandi Sahar Rd, Bihar
70KWRKoelwar (2)  15:42+4:3515:43+4:351m--2957.83765mECRNational Highway 30, Bihar
71VHCHChakki Block CabinX  15:47+4:3515:48+4:351m--2960.26363mECRNational Highway 30, Bihar
72BTABihta (2)  15:54+4:3515:55+4:371m--2966.53662mECRBihta, Bihar
73SDESadisopur (2)  16:02+4:3716:03+4:371m--2970.75364mECRSadisopur, Bihar
74NEONeora (2)X  16:11+4:3716:12+4:401m--2977.82061mECRNational Highway 98, Bihar
75DNRDanapur (5)XO  16:30+4:3716:40+4:4010m--2983.81958mECRKhagaul, Bihar
76PNBEPatna Junction (10)X  17:10+4:2817:20+4:4010m--2993.22257mECRPatna 800001, Bihar
77RJPBRajendra Nagar Bihar (4)X  17:27+4:2317:29+4:312m--2995.85155mECRPatna 800001, Bihar
78GZHGulzarbagh (3)  17:34+4:2317:36+4:322m--21000.12655mECRPatna, Bihar
79PNCPatna Saheb (3)  17:43+4:2317:45+4:342m--21003.14659mECRPatna, Bihar
80BKGBanka Ghat (2)  17:53+4:2417:54+4:341m--21009.36156mECRPatna, Bihar
81FUTFatwa (6)X  18:00+4:2618:01+4:201m--21015.35653mECRPatna, Bihar
82KOOKhusropur (2)  18:10+4:1918:11+4:201m--21023.87152mECRPatna, Bihar
83KWOKarauta (2)X  18:18+4:2118:19+4:111m--21032.01554mECRKarauta, Bihar
84BKPBakhtiyarpur Junction (5)18:45+4:0519:05+4:1720m--21038.47851mECRPatna, Bihar
85ATLAthmal Gola (2)  19:12+4:1719:13+4:171m--21047.46952mECRPatna, Bihar
86BARHBarh (3)O  19:21+4:1719:22+4:241m--21056.66949mECRBarh, Bihar
87PHKPunarakh  19:31+4:2319:33+4:222m--21067.03251mECRPunarakh, Bihar
88MMKBMemrakhabadXO  19:38+4:2219:39+4:221m--21069.73449mECRMor, Bihar
89KNHPKanhaipurO  19:43+4:2019:44+4:201m--21071.94047mECRMor, Bihar
90MORMor  19:49+4:2019:50+4:211m--21075.34846mECRMor, Bihar
91MKAMokama Junction (3)O  19:59+4:2120:01+4:222m--21082.55348mECRPatna, Bihar
92TALLTall Junction  20:06+4:2320:07+4:231m--21086.94844mECRTal, Bihar
93HTZHathidah Junction (2)X  20:12+4:2420:13+4:331m121090.91850mECRMusahari, Bihar
94RDUMRampur DumraX  20:26+4:2020:27+4:321m--21094.73346mECRNational Highway 80, Bihar
95BRYABarhiya  20:37+4:2320:38+4:321m--21100.25147mECRBarahiya, Bihar
96DMRXDumri Halt (1)  20:43+4:3320:44+4:421m121104.53949mECRNational Highway 80, Bihar
97MKBMankatha  20:52+4:3320:53+4:351m--21109.85647mECRNational Highway 80, Bihar
98LKRLuckeesarai Junction (2)  20:59+4:3621:00+4:381m--21115.3852mECRLakhisarai, Bihar
99KIULKiul Junction (5)  21:10+4:3621:12+4:262m--21116.73353mECRDist. Lakhisarai, Bihar
100BSQPBansipur  21:20+4:3721:21+4:371m--21121.12253mECRKiul, Bihar
101MNPMananpur (2)O  21:28+4:3721:29+4:271m--21123.62657mECRState Highway 18, Bihar
102BFMBhaluiX  21:35+4:3721:36+4:371m--21126.213356mECRState Highway 18, Bihar
103JMUJamui (3)X  21:44+4:3721:45+4:381m--21144.04681mECRState Highway 72, Bihar
104GHRGidhaur (2)X  22:04+4:4322:05+4:451m--21158.634106mECRState Highway 18, Bihar
105JAJJhajha (4)  22:25+4:5022:33+4:058m--21170.062143mECRJhajha, Bihar
106STLSimultala (2)X  22:51+3:5122:54+3:513m--21188.776247mERSimultala, Bihar
107JSMEJasidih Junction (5)X  23:14+3:5123:19+3:525m--21214.170271mERJasidih, Jharkhand
108MDPMadhupur Junction (4)X  23:44+3:5523:52+4:158m--21243.287254mER06432-224478, Jharkhand
109CRJChittaranjan (3)  00:31+3:5400:33+3:542m231299.643182mERMihijam, Jharkhand
110ASNAsansol Junction (7)XO  01:08+3:5301:18+3:5310m--31324.764113mERDist - bardhaman, West Bengal
111RNGRaniGanj (4)X  01:35+3:4801:39+3:474m--31342.84992mERRaniganj, West Bengal
112UDLAndal Junction (6)  01:48+4:0901:50+4:082m--31350.17386mERAndal, West Bengal
113DGRDurgapur (5)X  02:04+4:1502:08+4:134m--31367.15571mERDurgapur, West Bengal
114BWNBarddhaman Junction (8)  03:17+4:0803:27+4:2610m--31430.65434mERDist - Barddhaman, West Bengal
115BDCBandel Junction (7)O  04:42+4:2504:47+4:325m--31497.94514mERdist - HOOGHLY, West Bengal
116CGRChandan Nagar (3)  04:56+4:2105:01+4:285m--31504.76116mERDist -HOOGHLY - 712136, West Bengal
117SRPSerampore (4)  05:14+4:1705:19+4:245m--31517.82611mERdist - hooghly, West Bengal
118HWH•Kolkata Howrah Junction (23)•  06:05+4:39-731537.5-10mERHowrah 711101, West Bengal
Scroll to Top
Scroll to Bottom